sensor_id;sensor_type;location;lat;lon;timestamp;P1;P2;P0
75563;PMS7003;64143;53.034;18.582;2023-02-15T00:02:27;121;104;60
75563;PMS7003;64143;53.034;18.582;2023-02-15T00:05:30;131;117;68
75563;PMS7003;64143;53.034;18.582;2023-02-15T00:08:32;114;93;54
75563;PMS7003;64143;53.034;18.582;2023-02-15T00:11:33;120;107;56
75563;PMS7003;64143;53.034;18.582;2023-02-15T00:14:41;120;97;53
75563;PMS7003;64143;53.034;18.582;2023-02-15T00:17:48;109;93;50
75563;PMS7003;64143;53.034;18.582;2023-02-15T00:20:50;100;87;48
75563;PMS7003;64143;53.034;18.582;2023-02-15T00:23:51;96;82;43
75563;PMS7003;64143;53.034;18.582;2023-02-15T00:26:53;71;59;36
75563;PMS7003;64143;53.034;18.582;2023-02-15T00:29:54;88;71;36
75563;PMS7003;64143;53.034;18.582;2023-02-15T00:32:56;82;72;41
75563;PMS7003;64143;53.034;18.582;2023-02-15T00:35:58;76;64;34
75563;PMS7003;64143;53.034;18.582;2023-02-15T00:39:04;79;66;37
75563;PMS7003;64143;53.034;18.582;2023-02-15T00:42:05;79;63;35
75563;PMS7003;64143;53.034;18.582;2023-02-15T00:45:07;84;67;37
75563;PMS7003;64143;53.034;18.582;2023-02-15T00:48:09;80;65;34
75563;PMS7003;64143;53.034;18.582;2023-02-15T00:51:12;72;57;34
75563;PMS7003;64143;53.034;18.582;2023-02-15T00:54:14;66;53;30
75563;PMS7003;64143;53.034;18.582;2023-02-15T00:57:15;65;49;30
75563;PMS7003;64143;53.034;18.582;2023-02-15T01:00:21;62;50;28
75563;PMS7003;64143;53.034;18.582;2023-02-15T01:03:22;69;50;30
75563;PMS7003;64143;53.034;18.582;2023-02-15T01:06:24;71;54;30
75563;PMS7003;64143;53.034;18.582;2023-02-15T01:09:26;66;52;32
75563;PMS7003;64143;53.034;18.582;2023-02-15T01:12:27;59;44;27
75563;PMS7003;64143;53.034;18.582;2023-02-15T01:15:29;70;50;30
75563;PMS7003;64143;53.034;18.582;2023-02-15T01:18:31;58;46;27
75563;PMS7003;64143;53.034;18.582;2023-02-15T01:21:36;55;43;27
75563;PMS7003;64143;53.034;18.582;2023-02-15T01:24:37;57;45;28
75563;PMS7003;64143;53.034;18.582;2023-02-15T01:27:39;55;43;25
75563;PMS7003;64143;53.034;18.582;2023-02-15T01:30:41;65;48;28
75563;PMS7003;64143;53.034;18.582;2023-02-15T01:33:42;54;44;29
75563;PMS7003;64143;53.034;18.582;2023-02-15T01:36:44;55;45;29
75563;PMS7003;64143;53.034;18.582;2023-02-15T01:39:45;55;42;23
75563;PMS7003;64143;53.034;18.582;2023-02-15T01:42:52;65;46;28
75563;PMS7003;64143;53.034;18.582;2023-02-15T01:45:54;58;44;28
75563;PMS7003;64143;53.034;18.582;2023-02-15T01:49:14;64;48;29
75563;PMS7003;64143;53.034;18.582;2023-02-15T01:52:18;65;48;29
75563;PMS7003;64143;53.034;18.582;2023-02-15T01:55:20;61;48;29
75563;PMS7003;64143;53.034;18.582;2023-02-15T01:58:25;59;42;26
75563;PMS7003;64143;53.034;18.582;2023-02-15T02:07:46;45;33;22
75563;PMS7003;64143;53.034;18.582;2023-02-15T02:10:52;62;43;24
75563;PMS7003;64143;53.034;18.582;2023-02-15T02:13:54;56;41;25
75563;PMS7003;64143;53.034;18.582;2023-02-15T02:33:17;53;43;25
75563;PMS7003;64143;53.034;18.582;2023-02-15T02:39:55;51;37;22
75563;PMS7003;64143;53.034;18.582;2023-02-15T02:43:29;49;39;23
75563;PMS7003;64143;53.034;18.582;2023-02-15T02:46:28;45;38;24
75563;PMS7003;64143;53.034;18.582;2023-02-15T02:49:30;40;31;19
75563;PMS7003;64143;53.034;18.582;2023-02-15T02:59:00;30;25;17
75563;PMS7003;64143;53.034;18.582;2023-02-15T03:02:10;48;34;19
75563;PMS7003;64143;53.034;18.582;2023-02-15T03:05:19;40;31;17
75563;PMS7003;64143;53.034;18.582;2023-02-15T03:08:26;42;36;19
75563;PMS7003;64143;53.034;18.582;2023-02-15T03:11:36;38;32;21
75563;PMS7003;64143;53.034;18.582;2023-02-15T03:14:38;36;28;17
75563;PMS7003;64143;53.034;18.582;2023-02-15T03:17:51;38;27;17
75563;PMS7003;64143;53.034;18.582;2023-02-15T03:20:58;36;30;17
75563;PMS7003;64143;53.034;18.582;2023-02-15T03:24:07;40;32;17
75563;PMS7003;64143;53.034;18.582;2023-02-15T03:27:15;42;31;19
75563;PMS7003;64143;53.034;18.582;2023-02-15T03:30:21;38;31;16
75563;PMS7003;64143;53.034;18.582;2023-02-15T03:33:24;35;30;19
75563;PMS7003;64143;53.034;18.582;2023-02-15T03:39:44;37;30;16
75563;PMS7003;64143;53.034;18.582;2023-02-15T03:46:25;33;28;16
75563;PMS7003;64143;53.034;18.582;2023-02-15T03:49:22;37;31;19
75563;PMS7003;64143;53.034;18.582;2023-02-15T03:52:29;38;27;17
75563;PMS7003;64143;53.034;18.582;2023-02-15T03:55:34;38;27;17
75563;PMS7003;64143;53.034;18.582;2023-02-15T03:58:36;38;26;15
75563;PMS7003;64143;53.034;18.582;2023-02-15T04:05:06;43;32;18
75563;PMS7003;64143;53.034;18.582;2023-02-15T04:08:07;45;32;16
75563;PMS7003;64143;53.034;18.582;2023-02-15T04:11:20;33;23;15
75563;PMS7003;64143;53.034;18.582;2023-02-15T04:14:21;40;27;15
75563;PMS7003;64143;53.034;18.582;2023-02-15T04:17:35;30;25;15
75563;PMS7003;64143;53.034;18.582;2023-02-15T04:20:46;27;23;10
75563;PMS7003;64143;53.034;18.582;2023-02-15T04:24:00;46;36;21
75563;PMS7003;64143;53.034;18.582;2023-02-15T04:27:14;47;39;24
75563;PMS7003;64143;53.034;18.582;2023-02-15T04:30:20;41;30;20
75563;PMS7003;64143;53.034;18.582;2023-02-15T04:33:23;41;32;18
75563;PMS7003;64143;53.034;18.582;2023-02-15T04:36:25;44;36;17
75563;PMS7003;64143;53.034;18.582;2023-02-15T04:39:26;38;33;22
75563;PMS7003;64143;53.034;18.582;2023-02-15T04:42:28;38;31;17
75563;PMS7003;64143;53.034;18.582;2023-02-15T04:45:40;37;32;21
75563;PMS7003;64143;53.034;18.582;2023-02-15T04:48:41;37;32;20
75563;PMS7003;64143;53.034;18.582;2023-02-15T04:51:44;38;29;18
75563;PMS7003;64143;53.034;18.582;2023-02-15T04:54:46;31;23;16
75563;PMS7003;64143;53.034;18.582;2023-02-15T04:57:47;30;24;15
75563;PMS7003;64143;53.034;18.582;2023-02-15T05:00:49;40;27;20
75563;PMS7003;64143;53.034;18.582;2023-02-15T05:03:50;28;26;13
75563;PMS7003;64143;53.034;18.582;2023-02-15T05:06:55;40;31;18
75563;PMS7003;64143;53.034;18.582;2023-02-15T05:09:56;45;34;19
75563;PMS7003;64143;53.034;18.582;2023-02-15T05:12:58;43;32;19
75563;PMS7003;64143;53.034;18.582;2023-02-15T05:15:59;50;36;22
75563;PMS7003;64143;53.034;18.582;2023-02-15T05:19:01;32;27;18
75563;PMS7003;64143;53.034;18.582;2023-02-15T05:22:02;50;37;21
75563;PMS7003;64143;53.034;18.582;2023-02-15T05:25:05;35;30;20
75563;PMS7003;64143;53.034;18.582;2023-02-15T05:28:19;42;32;19
75563;PMS7003;64143;53.034;18.582;2023-02-15T05:31:21;29;27;17
75563;PMS7003;64143;53.034;18.582;2023-02-15T05:34:23;38;29;16
75563;PMS7003;64143;53.034;18.582;2023-02-15T05:37:24;28;23;13
75563;PMS7003;64143;53.034;18.582;2023-02-15T05:40:26;36;30;17
75563;PMS7003;64143;53.034;18.582;2023-02-15T05:43:31;35;29;16
75563;PMS7003;64143;53.034;18.582;2023-02-15T05:46:33;28;26;17
75563;PMS7003;64143;53.034;18.582;2023-02-15T05:49:35;34;27;17
75563;PMS7003;64143;53.034;18.582;2023-02-15T05:52:36;31;26;15
75563;PMS7003;64143;53.034;18.582;2023-02-15T05:55:39;32;24;14
75563;PMS7003;64143;53.034;18.582;2023-02-15T05:58:41;46;36;22
75563;PMS7003;64143;53.034;18.582;2023-02-15T06:01:43;33;27;17
75563;PMS7003;64143;53.034;18.582;2023-02-15T06:04:48;36;28;14
75563;PMS7003;64143;53.034;18.582;2023-02-15T06:07:49;30;26;16
75563;PMS7003;64143;53.034;18.582;2023-02-15T06:10:51;38;31;18
75563;PMS7003;64143;53.034;18.582;2023-02-15T06:13:52;46;34;21
75563;PMS7003;64143;53.034;18.582;2023-02-15T06:16:54;42;34;19
75563;PMS7003;64143;53.034;18.582;2023-02-15T06:19:55;50;36;23
75563;PMS7003;64143;53.034;18.582;2023-02-15T06:22:57;41;32;19
75563;PMS7003;64143;53.034;18.582;2023-02-15T06:26:03;43;32;13
75563;PMS7003;64143;53.034;18.582;2023-02-15T06:29:05;32;24;16
75563;PMS7003;64143;53.034;18.582;2023-02-15T06:32:07;45;36;20
75563;PMS7003;64143;53.034;18.582;2023-02-15T06:35:08;51;41;25
75563;PMS7003;64143;53.034;18.582;2023-02-15T06:38:10;49;38;24
75563;PMS7003;64143;53.034;18.582;2023-02-15T06:41:11;48;38;24
75563;PMS7003;64143;53.034;18.582;2023-02-15T06:44:13;53;41;25
75563;PMS7003;64143;53.034;18.582;2023-02-15T06:47:18;41;31;19
75563;PMS7003;64143;53.034;18.582;2023-02-15T06:50:20;47;37;20
75563;PMS7003;64143;53.034;18.582;2023-02-15T06:53:21;48;37;23
75563;PMS7003;64143;53.034;18.582;2023-02-15T06:56:23;46;36;19
75563;PMS7003;64143;53.034;18.582;2023-02-15T06:59:24;38;33;20
75563;PMS7003;64143;53.034;18.582;2023-02-15T07:02:26;46;36;21
75563;PMS7003;64143;53.034;18.582;2023-02-15T07:05:27;39;32;18
75563;PMS7003;64143;53.034;18.582;2023-02-15T07:08:34;49;42;25
75563;PMS7003;64143;53.034;18.582;2023-02-15T07:11:36;49;41;26
75563;PMS7003;64143;53.034;18.582;2023-02-15T07:14:49;44;33;22
75563;PMS7003;64143;53.034;18.582;2023-02-15T07:18:00;36;26;10
75563;PMS7003;64143;53.034;18.582;2023-02-15T07:21:02;50;38;21
75563;PMS7003;64143;53.034;18.582;2023-02-15T07:24:04;46;37;24
75563;PMS7003;64143;53.034;18.582;2023-02-15T07:27:07;50;41;23
75563;PMS7003;64143;53.034;18.582;2023-02-15T07:30:10;52;40;27
75563;PMS7003;64143;53.034;18.582;2023-02-15T07:33:21;50;35;22
75563;PMS7003;64143;53.034;18.582;2023-02-15T07:36:27;53;41;23
75563;PMS7003;64143;53.034;18.582;2023-02-15T07:42:49;44;34;19
75563;PMS7003;64143;53.034;18.582;2023-02-15T07:46:04;45;37;22
75563;PMS7003;64143;53.034;18.582;2023-02-15T07:49:03;51;37;26
75563;PMS7003;64143;53.034;18.582;2023-02-15T07:52:15;62;47;28
75563;PMS7003;64143;53.034;18.582;2023-02-15T07:55:17;52;41;25
75563;PMS7003;64143;53.034;18.582;2023-02-15T07:58:19;52;42;25
75563;PMS7003;64143;53.034;18.582;2023-02-15T08:04:29;46;39;24
75563;PMS7003;64143;53.034;18.582;2023-02-15T08:07:36;45;36;23
75563;PMS7003;64143;53.034;18.582;2023-02-15T08:10:38;57;44;27
75563;PMS7003;64143;53.034;18.582;2023-02-15T08:13:52;56;43;26
75563;PMS7003;64143;53.034;18.582;2023-02-15T08:17:03;54;42;27
75563;PMS7003;64143;53.034;18.582;2023-02-15T08:20:06;45;36;23
75563;PMS7003;64143;53.034;18.582;2023-02-15T08:23:09;47;36;22
75563;PMS7003;64143;53.034;18.582;2023-02-15T08:26:10;61;44;28
75563;PMS7003;64143;53.034;18.582;2023-02-15T08:29:17;55;42;27
75563;PMS7003;64143;53.034;18.582;2023-02-15T08:32:24;50;38;21
75563;PMS7003;64143;53.034;18.582;2023-02-15T08:35:26;47;38;22
75563;PMS7003;64143;53.034;18.582;2023-02-15T08:38:27;55;45;26
75563;PMS7003;64143;53.034;18.582;2023-02-15T08:41:29;48;40;25
75563;PMS7003;64143;53.034;18.582;2023-02-15T08:44:36;46;39;23
75563;PMS7003;64143;53.034;18.582;2023-02-15T08:47:45;46;34;18
75563;PMS7003;64143;53.034;18.582;2023-02-15T08:50:47;41;33;21
75563;PMS7003;64143;53.034;18.582;2023-02-15T08:53:49;46;37;25
75563;PMS7003;64143;53.034;18.582;2023-02-15T08:56:52;43;37;24
75563;PMS7003;64143;53.034;18.582;2023-02-15T08:59:54;34;28;18
75563;PMS7003;64143;53.034;18.582;2023-02-15T09:03:06;34;30;18
75563;PMS7003;64143;53.034;18.582;2023-02-15T09:06:08;48;36;22
75563;PMS7003;64143;53.034;18.582;2023-02-15T09:09:09;46;31;18
75563;PMS7003;64143;53.034;18.582;2023-02-15T09:12:12;40;32;19
75563;PMS7003;64143;53.034;18.582;2023-02-15T09:15:13;42;33;17
75563;PMS7003;64143;53.034;18.582;2023-02-15T09:18:15;36;31;20
75563;PMS7003;64143;53.034;18.582;2023-02-15T09:21:19;39;33;20
75563;PMS7003;64143;53.034;18.582;2023-02-15T09:24:22;44;35;21
75563;PMS7003;64143;53.034;18.582;2023-02-15T09:27:24;41;34;19
75563;PMS7003;64143;53.034;18.582;2023-02-15T09:30:26;38;30;19
75563;PMS7003;64143;53.034;18.582;2023-02-15T09:33:28;30;28;16
75563;PMS7003;64143;53.034;18.582;2023-02-15T09:36:33;44;31;17
75563;PMS7003;64143;53.034;18.582;2023-02-15T09:39:43;44;31;18
75563;PMS7003;64143;53.034;18.582;2023-02-15T09:58:57;37;31;18
75563;PMS7003;64143;53.034;18.582;2023-02-15T10:12:47;26;15;5
75563;PMS7003;64143;53.034;18.582;2023-02-15T10:25:19;26;24;13
75563;PMS7003;64143;53.034;18.582;2023-02-15T10:28:23;29;26;14
75563;PMS7003;64143;53.034;18.582;2023-02-15T10:38:15;36;31;16
75563;PMS7003;64143;53.034;18.582;2023-02-15T10:51:05;31;28;17
